createdAt,value
2022-08-09T00:01:52.832Z,18.43
2022-08-09T00:05:03.698Z,18.40
2022-08-09T00:08:32.576Z,18.32
2022-08-09T00:12:02.839Z,18.33
2022-08-09T00:15:00.442Z,18.33
2022-08-09T00:18:11.114Z,18.34
2022-08-09T00:21:14.317Z,18.33
2022-08-09T00:24:17.081Z,18.32
2022-08-09T00:27:22.531Z,18.28
2022-08-09T00:30:27.064Z,18.29
2022-08-09T00:33:48.873Z,18.25
2022-08-09T00:36:52.382Z,18.15
2022-08-09T00:40:13.159Z,18.05
2022-08-09T00:44:26.866Z,18.02
2022-08-09T00:46:56.508Z,17.83
2022-08-09T00:50:06.704Z,17.62
2022-08-09T00:53:17.943Z,17.45
2022-08-09T00:56:27.004Z,17.39
2022-08-09T00:59:29.517Z,17.47
2022-08-09T01:02:49.874Z,17.53
2022-08-09T01:05:58.379Z,17.61
2022-08-09T01:09:18.365Z,17.76
2022-08-09T01:12:30.387Z,17.79
2022-08-09T01:15:40.951Z,17.80
2022-08-09T01:19:04.379Z,17.78
2022-08-09T01:22:24.518Z,17.78
2022-08-09T01:25:48.803Z,17.74
2022-08-09T01:28:57.328Z,17.56
2022-08-09T01:32:30.715Z,17.44
2022-08-09T01:35:38.564Z,17.47
2022-08-09T01:38:46.322Z,17.52
2022-08-09T01:41:53.425Z,17.38
2022-08-09T01:45:01.508Z,17.32
2022-08-09T01:48:05.969Z,17.28
2022-08-09T01:51:10.546Z,17.25
2022-08-09T01:54:15.377Z,17.21
2022-08-09T01:57:20.521Z,17.11
2022-08-09T02:00:35.663Z,17.06
2022-08-09T02:03:42.932Z,17.07
2022-08-09T02:07:04.258Z,17.12
2022-08-09T02:10:10.284Z,17.20
2022-08-09T02:13:15.347Z,17.17
2022-08-09T02:16:19.609Z,17.20
2022-08-09T02:19:39.192Z,17.15
2022-08-09T02:22:52.382Z,17.18
2022-08-09T02:25:59.306Z,17.16
2022-08-09T02:29:09.797Z,17.13
2022-08-09T02:32:17.384Z,17.10
2022-08-09T02:36:01.356Z,17.02
2022-08-09T02:38:51.968Z,16.94
2022-08-09T02:41:59.650Z,16.97
2022-08-09T02:45:08.235Z,17.02
2022-08-09T02:48:30.686Z,17.01
2022-08-09T02:51:40.542Z,17.02
2022-08-09T02:54:54.144Z,17.04
2022-08-09T02:57:59.971Z,17.11
2022-08-09T03:01:29.496Z,17.12
2022-08-09T03:04:50.822Z,17.05
2022-08-09T03:07:55.609Z,16.94
2022-08-09T03:11:00.231Z,16.90
2022-08-09T03:14:03.477Z,16.84
2022-08-09T03:17:07.371Z,16.85
2022-08-09T03:20:21.343Z,16.84
2022-08-09T03:23:26.098Z,16.90
2022-08-09T03:26:31.844Z,16.90
2022-08-09T03:29:43.249Z,16.88
2022-08-09T03:33:00.261Z,16.95
2022-08-09T03:36:12.975Z,16.91
2022-08-09T03:39:16.845Z,16.87
2022-08-09T03:42:19.430Z,16.84
2022-08-09T03:46:04.813Z,16.84
2022-08-09T03:48:55.929Z,16.85
2022-08-09T03:52:03.673Z,16.92
2022-08-09T03:55:10.567Z,16.97
2022-08-09T03:58:21.256Z,17.14
2022-08-09T04:01:25.091Z,17.15
2022-08-09T04:04:38.842Z,17.11
2022-08-09T04:07:52.934Z,17.06
2022-08-09T04:11:01.632Z,17.05
2022-08-09T04:14:53.033Z,17.11
2022-08-09T04:17:27.111Z,17.08
2022-08-09T04:20:32.675Z,17.07
2022-08-09T04:23:36.586Z,17.15
2022-08-09T04:26:39.060Z,17.19
2022-08-09T04:29:50.004Z,17.21
2022-08-09T04:32:54.512Z,17.22
2022-08-09T04:35:57.073Z,17.25
2022-08-09T04:39:03.980Z,17.26
2022-08-09T04:42:09.340Z,17.27
2022-08-09T04:45:12.834Z,17.32
2022-08-09T04:48:15.594Z,17.38
2022-08-09T04:51:18.087Z,17.50
2022-08-09T04:54:24.060Z,17.54
2022-08-09T04:57:27.083Z,17.59
2022-08-09T05:00:49.586Z,17.66
2022-08-09T05:03:56.787Z,17.84
2022-08-09T05:07:01.180Z,18.06
2022-08-09T05:10:05.634Z,18.19
2022-08-09T05:13:08.275Z,18.71
2022-08-09T05:16:14.917Z,18.91
2022-08-09T05:19:24.495Z,19.13
2022-08-09T05:22:35.679Z,19.35
2022-08-09T05:25:40.552Z,19.62
2022-08-09T05:28:44.203Z,19.61
2022-08-09T05:31:56.152Z,20.65
2022-08-09T05:35:00.233Z,21.18
2022-08-09T05:38:02.711Z,21.17
2022-08-09T05:41:06.891Z,20.85
2022-08-09T05:44:16.105Z,21.14
2022-08-09T05:47:27.137Z,20.74
2022-08-09T05:50:36.052Z,21.12
2022-08-09T05:53:56.419Z,21.32
2022-08-09T06:00:10.063Z,21.77
2022-08-09T06:03:19.617Z,21.77
2022-08-09T06:06:22.799Z,21.98
2022-08-09T06:10:02.488Z,22.34
2022-08-09T06:12:50.494Z,22.60
2022-08-09T06:16:06.237Z,22.64
2022-08-09T06:19:08.703Z,22.55
2022-08-09T06:22:15.266Z,22.72
2022-08-09T06:25:18.141Z,23.06
2022-08-09T06:28:31.877Z,23.18
2022-08-09T06:31:40.285Z,23.79
2022-08-09T06:34:57.346Z,23.95
2022-08-09T06:38:05.819Z,23.74
2022-08-09T06:41:18.723Z,23.54
2022-08-09T06:44:23.121Z,23.63
2022-08-09T06:47:39.424Z,23.77
2022-08-09T06:50:42.850Z,24.60
2022-08-09T06:53:45.874Z,24.24
2022-08-09T06:56:52.436Z,23.96
2022-08-09T07:00:49.542Z,23.96
2022-08-09T07:03:18.787Z,24.42
2022-08-09T07:06:21.326Z,25.03
2022-08-09T07:09:57.181Z,25.08
2022-08-09T07:12:57.407Z,25.44
2022-08-09T07:16:41.867Z,25.71
2022-08-09T07:19:24.383Z,25.91
2022-08-09T07:22:42.242Z,26.10
2022-08-09T07:25:52.515Z,26.33
2022-08-09T07:29:12.186Z,26.91
2022-08-09T07:32:17.257Z,26.48
2022-08-09T07:35:19.865Z,27.50
2022-08-09T07:38:23.420Z,27.14
2022-08-09T07:41:27.044Z,27.59
2022-08-09T07:44:51.788Z,27.03
2022-08-09T07:48:01.378Z,26.33
2022-08-09T07:52:03.793Z,26.87
2022-08-09T07:54:31.592Z,26.60
2022-08-09T07:57:36.136Z,26.62
2022-08-09T08:00:56.036Z,27.35
2022-08-09T08:04:03.342Z,27.00
2022-08-09T08:07:27.116Z,27.23
2022-08-09T08:10:28.765Z,26.92
2022-08-09T08:13:42.656Z,27.24
2022-08-09T08:17:07.773Z,28.25
2022-08-09T08:20:13.727Z,28.55
2022-08-09T08:23:17.799Z,28.60
2022-08-09T08:26:26.402Z,28.92
2022-08-09T08:29:48.594Z,29.13
2022-08-09T08:32:54.257Z,29.32
2022-08-09T08:36:03.560Z,28.85
2022-08-09T08:39:08.601Z,28.32
2022-08-09T08:42:13.446Z,28.43
2022-08-09T08:45:18.618Z,29.10
2022-08-09T08:48:51.526Z,29.30
2022-08-09T08:52:00.307Z,30.39
2022-08-09T08:55:05.879Z,30.53
2022-08-09T08:58:10.776Z,30.53
2022-08-09T09:01:24.585Z,29.18
2022-08-09T09:04:31.363Z,28.95
2022-08-09T09:07:44.950Z,28.98
2022-08-09T09:10:48.248Z,29.39
2022-08-09T09:13:58.458Z,29.52
2022-08-09T09:17:02.742Z,30.44
2022-08-09T09:20:09.650Z,30.43
2022-08-09T09:23:21.499Z,30.22
2022-08-09T09:26:43.581Z,30.12
2022-08-09T09:33:16.668Z,30.51
2022-08-09T09:36:22.002Z,30.23
2022-08-09T09:39:50.428Z,29.65
2022-08-09T09:42:56.849Z,29.36
2022-08-09T09:49:49.922Z,30.68
2022-08-09T09:52:53.397Z,30.11
2022-08-09T09:56:04.178Z,30.86
2022-08-09T09:59:09.470Z,31.12
2022-08-09T10:02:12.434Z,31.46
2022-08-09T10:05:15.020Z,31.83
2022-08-09T10:08:29.311Z,31.50
2022-08-09T10:11:59.862Z,31.43
2022-08-09T10:15:07.535Z,31.82
2022-08-09T10:18:19.973Z,30.81
2022-08-09T10:21:24.968Z,30.44
2022-08-09T10:24:35.834Z,29.43
2022-08-09T10:27:45.409Z,29.33
2022-08-09T10:34:33.571Z,30.14
2022-08-09T10:37:39.033Z,31.50
2022-08-09T10:40:44.751Z,32.20
2022-08-09T10:43:53.915Z,31.42
2022-08-09T10:48:19.229Z,28.25
2022-08-09T10:51:06.641Z,27.12
2022-08-09T10:54:12.467Z,27.19
2022-08-09T10:57:15.743Z,27.33
2022-08-09T11:00:41.812Z,28.36
2022-08-09T11:04:31.369Z,29.63
2022-08-09T11:07:57.749Z,30.18
2022-08-09T11:11:00.550Z,30.38
2022-08-09T11:14:31.842Z,29.36
2022-08-09T11:18:03.766Z,27.81
2022-08-09T11:21:06.641Z,27.70
2022-08-09T11:24:10.558Z,28.07
2022-08-09T11:28:04.430Z,27.46
2022-08-09T11:30:52.780Z,29.14
2022-08-09T11:34:04.225Z,28.02
2022-08-09T11:37:18.400Z,27.58
2022-08-09T11:40:29.901Z,27.42
2022-08-09T11:43:41.457Z,27.50
2022-08-09T11:46:54.918Z,27.71
2022-08-09T11:50:55.534Z,28.71
2022-08-09T11:53:58.533Z,30.36
2022-08-09T11:56:51.273Z,30.35
2022-08-09T11:59:53.856Z,30.34
2022-08-09T12:02:57.893Z,30.09
2022-08-09T12:06:10.346Z,28.97
2022-08-09T12:09:19.230Z,29.44
2022-08-09T12:12:29.230Z,28.60
2022-08-09T12:15:50.268Z,27.19
2022-08-09T12:18:55.771Z,27.18
2022-08-09T12:22:03.857Z,27.79
2022-08-09T12:25:15.221Z,26.92
2022-08-09T12:29:15.031Z,26.44
2022-08-09T12:32:01.763Z,26.51
2022-08-09T12:35:12.597Z,26.45
2022-08-09T12:38:37.320Z,27.73
2022-08-09T12:41:41.335Z,28.81
2022-08-09T12:44:52.258Z,29.03
2022-08-09T12:47:57.091Z,29.46
2022-08-09T12:51:00.515Z,29.59
2022-08-09T12:54:08.684Z,30.25
2022-08-09T12:57:11.195Z,30.17
2022-08-09T13:00:17.588Z,30.73
2022-08-09T13:03:58.390Z,29.26
2022-08-09T13:06:51.451Z,28.89
2022-08-09T13:10:04.629Z,29.80
2022-08-09T13:13:10.104Z,28.42
2022-08-09T13:16:17.512Z,27.14
2022-08-09T13:20:07.801Z,26.02
2022-08-09T13:23:05.449Z,25.91
2022-08-09T13:26:38.549Z,26.27
2022-08-09T13:30:03.544Z,25.91
2022-08-09T13:33:07.015Z,26.29
2022-08-09T13:36:39.457Z,28.08
2022-08-09T13:41:45.664Z,29.33
2022-08-09T13:43:03.446Z,29.89
2022-08-09T13:47:17.928Z,29.08
2022-08-09T13:49:37.445Z,29.32
2022-08-09T13:52:41.817Z,29.55
2022-08-09T13:55:44.880Z,29.06
2022-08-09T13:58:53.212Z,28.69
2022-08-09T14:02:02.228Z,27.86
2022-08-09T14:05:05.466Z,27.68
2022-08-09T14:08:08.055Z,26.96
2022-08-09T14:11:16.200Z,28.18
2022-08-09T14:14:26.052Z,29.03
2022-08-09T14:17:32.622Z,29.48
2022-08-09T14:20:52.821Z,29.10
2022-08-09T14:23:57.310Z,29.51
2022-08-09T14:27:01.250Z,29.25
2022-08-09T14:30:36.360Z,28.14
2022-08-09T14:33:29.495Z,27.53
2022-08-09T14:36:39.853Z,27.15
2022-08-09T14:39:48.368Z,27.01
2022-08-09T14:42:51.355Z,26.79
2022-08-09T14:47:00.905Z,26.17
2022-08-09T14:49:18.448Z,26.11
2022-08-09T14:52:26.122Z,26.14
2022-08-09T14:55:32.224Z,27.28
2022-08-09T14:58:37.841Z,28.13
2022-08-09T15:01:47.951Z,27.81
2022-08-09T15:04:51.930Z,27.94
2022-08-09T15:07:56.887Z,28.44
2022-08-09T15:11:04.854Z,28.06
2022-08-09T15:14:13.248Z,28.13
2022-08-09T15:17:17.944Z,27.79
2022-08-09T15:21:55.133Z,27.88
2022-08-09T15:24:02.788Z,27.65
2022-08-09T15:27:06.643Z,26.75
2022-08-09T15:30:58.948Z,26.15
2022-08-09T15:34:15.394Z,25.77
2022-08-09T15:37:01.151Z,25.41
2022-08-09T15:40:11.663Z,25.31
2022-08-09T15:43:14.758Z,25.58
2022-08-09T15:46:33.666Z,25.89
2022-08-09T15:49:38.720Z,26.25
2022-08-09T15:53:05.995Z,26.30
2022-08-09T15:56:21.491Z,25.68
2022-08-09T15:59:37.100Z,25.31
2022-08-09T16:02:40.182Z,25.01
2022-08-09T16:05:53.118Z,25.10
2022-08-09T16:09:00.879Z,25.52
2022-08-09T16:12:04.188Z,25.45
2022-08-09T16:16:10.399Z,25.83
2022-08-09T16:18:31.268Z,25.94
2022-08-09T16:21:36.752Z,25.88
2022-08-09T16:24:39.292Z,25.80
2022-08-09T16:27:51.393Z,25.75
2022-08-09T16:30:59.216Z,25.66
2022-08-09T16:34:02.495Z,25.60
2022-08-09T16:37:08.283Z,25.36
2022-08-09T16:40:29.463Z,25.20
2022-08-09T16:43:40.458Z,25.06
2022-08-09T16:46:55.547Z,25.05
2022-08-09T16:50:31.321Z,25.07
2022-08-09T16:53:34.258Z,25.07
2022-08-09T16:56:37.239Z,25.23
2022-08-09T16:59:57.543Z,25.29
2022-08-09T17:03:00.668Z,25.32
2022-08-09T17:06:29.254Z,25.06
2022-08-09T17:09:45.003Z,24.94
2022-08-09T17:12:49.579Z,24.96
2022-08-09T17:15:59.916Z,24.81
2022-08-09T17:19:05.255Z,24.51
2022-08-09T17:22:08.125Z,24.31
2022-08-09T17:25:13.494Z,24.21
2022-08-09T17:28:16.153Z,24.20
2022-08-09T17:31:20.693Z,24.10
2022-08-09T17:35:04.379Z,24.02
2022-08-09T17:38:11.634Z,23.95
2022-08-09T17:41:11.908Z,23.92
2022-08-09T17:44:38.595Z,23.95
2022-08-09T17:47:49.509Z,23.87
2022-08-09T17:51:08.705Z,23.82
2022-08-09T17:54:12.417Z,23.74
2022-08-09T17:58:02.516Z,23.52
2022-08-09T18:00:46.574Z,23.25
2022-08-09T18:03:50.741Z,22.97
2022-08-09T18:06:54.870Z,22.92
2022-08-09T18:10:04.373Z,22.82
2022-08-09T18:13:53.677Z,22.64
2022-08-09T18:16:31.989Z,22.52
2022-08-09T18:20:57.955Z,22.37
2022-08-09T18:23:04.629Z,22.19
2022-08-09T18:26:08.524Z,22.02
2022-08-09T18:30:39.252Z,21.86
2022-08-09T18:32:35.568Z,21.60
2022-08-09T18:35:59.556Z,21.48
2022-08-09T18:39:03.283Z,21.33
2022-08-09T18:42:08.121Z,21.22
2022-08-09T18:45:21.563Z,21.13
2022-08-09T18:48:35.931Z,20.93
2022-08-09T18:51:57.832Z,20.76
2022-08-09T18:55:00.839Z,20.66
2022-08-09T18:58:03.345Z,20.58
2022-08-09T19:01:07.645Z,20.38
2022-08-09T19:04:10.534Z,20.27
2022-08-09T19:07:13.175Z,20.15
2022-08-09T19:10:19.224Z,20.11
2022-08-09T19:13:49.546Z,20.16
2022-08-09T19:16:50.226Z,20.02
2022-08-09T19:20:00.725Z,19.89
2022-08-09T19:23:05.491Z,19.80
2022-08-09T19:26:09.244Z,19.57
2022-08-09T19:29:18.110Z,19.47
2022-08-09T19:32:26.629Z,19.39
2022-08-09T19:35:57.388Z,19.31
2022-08-09T19:38:54.941Z,19.25
2022-08-09T19:41:58.448Z,19.11
2022-08-09T19:45:01.164Z,19.00
2022-08-09T19:48:05.610Z,18.90
2022-08-09T19:51:11.950Z,18.73
2022-08-09T19:54:16.567Z,18.65
2022-08-09T19:57:19.067Z,18.58
2022-08-09T20:00:28.496Z,18.50
2022-08-09T20:04:16.766Z,18.41
2022-08-09T20:06:54.897Z,18.25
2022-08-09T20:09:57.569Z,18.27
2022-08-09T20:13:00.234Z,18.19
2022-08-09T20:16:34.004Z,18.10
2022-08-09T20:19:49.582Z,18.06
2022-08-09T20:22:49.395Z,18.12
2022-08-09T20:25:53.455Z,17.98
2022-08-09T20:28:56.386Z,17.78
2022-08-09T20:32:29.262Z,17.51
2022-08-09T20:35:25.256Z,17.26
2022-08-09T20:38:49.191Z,17.08
2022-08-09T20:41:50.277Z,16.96
2022-08-09T20:45:21.423Z,16.91
2022-08-09T20:48:20.943Z,16.93
2022-08-09T20:51:26.627Z,16.96
2022-08-09T20:54:31.199Z,17.01
2022-08-09T20:57:34.532Z,17.05
2022-08-09T21:01:02.256Z,17.12
2022-08-09T21:05:53.877Z,16.92
2022-08-09T21:07:44.891Z,16.73
2022-08-09T21:10:53.359Z,16.43
2022-08-09T21:13:59.535Z,16.24
2022-08-09T21:18:22.018Z,16.20
2022-08-09T21:20:26.390Z,16.36
2022-08-09T21:23:47.989Z,16.33
2022-08-09T21:26:53.652Z,16.36
2022-08-09T21:29:57.339Z,16.45
2022-08-09T21:32:59.812Z,16.62
2022-08-09T21:36:02.455Z,16.68
2022-08-09T21:39:08.329Z,16.54
2022-08-09T21:42:11.369Z,16.30
2022-08-09T21:45:17.336Z,16.06
2022-08-09T21:48:20.047Z,15.98
2022-08-09T21:51:24.565Z,15.89
2022-08-09T21:54:40.363Z,15.75
2022-08-09T21:57:59.097Z,15.65
2022-08-09T22:01:02.742Z,15.54
2022-08-09T22:04:05.434Z,15.50
2022-08-09T22:07:08.426Z,15.43
2022-08-09T22:10:13.866Z,15.41
2022-08-09T22:13:33.967Z,15.29
2022-08-09T22:16:37.576Z,15.26
2022-08-09T22:19:59.045Z,15.11
2022-08-09T22:23:04.944Z,14.98
2022-08-09T22:26:34.417Z,14.86
2022-08-09T22:29:48.494Z,14.74
2022-08-09T22:32:52.845Z,14.79
2022-08-09T22:35:59.867Z,14.81
2022-08-09T22:39:05.561Z,14.80
2022-08-09T22:42:21.292Z,14.77
2022-08-09T22:48:16.874Z,14.63
2022-08-09T22:48:50.381Z,14.47
2022-08-09T22:51:56.891Z,14.32
2022-08-09T22:55:00.072Z,14.32
2022-08-09T22:58:04.918Z,14.36
2022-08-09T23:01:07.753Z,14.34
2022-08-09T23:04:10.306Z,14.42
2022-08-09T23:07:31.124Z,14.35
2022-08-09T23:10:52.955Z,14.23
2022-08-09T23:13:56.765Z,14.26
2022-08-09T23:16:59.397Z,14.07
2022-08-09T23:20:06.700Z,13.82
2022-08-09T23:23:10.081Z,13.59
2022-08-09T23:26:12.577Z,13.74
2022-08-09T23:29:16.393Z,13.81
2022-08-09T23:32:18.874Z,13.83
2022-08-09T23:35:21.377Z,13.81
2022-08-09T23:38:23.911Z,13.88
2022-08-09T23:41:28.852Z,13.98
2022-08-09T23:44:33.450Z,13.98
2022-08-09T23:47:36.020Z,13.90
2022-08-09T23:50:38.561Z,13.92
2022-08-09T23:53:41.048Z,13.95
2022-08-09T23:56:54.506Z,13.91
